Time;durP1;ratioP1;P1;durP2;ratioP2;P2;SDS_P1;SDS_P2;PMS_P1;PMS_P2;Temp;Humidity;BMP_temperature;BMP_pressure;BME280_temperature;BME280_humidity;BME280_pressure;Samples;Min_cycle;Max_cycle;Signal;HPM_P1;HPM_P2
2023/04/21 00:00:10;;;;;;;25.38;13.68;;;;;;;9.53;100.00;98293.00;2578427;28;20046;-82
2023/04/21 00:01:46;;;;;;;26.85;14.13;;;;;;;9.50;100.00;98286.97;2578790;28;20050;-82
2023/04/21 00:03:02;;;;;;;27.92;14.60;;;;;;;9.51;100.00;98281.72;2579062;28;20574;-82
2023/04/21 00:04:18;;;;;;;28.45;13.88;;;;;;;9.27;100.00;98280.59;2578438;28;20054;-82
2023/04/21 00:05:34;;;;;;;29.10;15.65;;;;;;;9.33;100.00;98285.66;2578421;28;20042;-82
2023/04/21 00:06:51;;;;;;;25.35;13.77;;;;;;;9.46;100.00;98283.59;2580061;28;20508;-82
2023/04/21 00:08:07;;;;;;;28.63;14.48;;;;;;;9.36;100.00;98282.13;2578990;28;20523;-82
2023/04/21 00:09:23;;;;;;;28.83;13.63;;;;;;;9.45;100.00;98280.13;2579689;28;20050;-82
2023/04/21 00:10:39;;;;;;;28.33;14.80;;;;;;;9.58;100.00;98279.81;2579111;28;20109;-82
2023/04/21 00:11:55;;;;;;;31.90;14.18;;;;;;;9.45;100.00;98279.28;2578720;28;20097;-82
2023/04/21 00:13:10;;;;;;;26.63;14.02;;;;;;;9.41;100.00;98281.09;2578484;28;20406;-82
2023/04/21 00:14:26;;;;;;;27.42;14.48;;;;;;;9.37;100.00;98273.38;2578767;28;20057;-82
2023/04/21 00:15:41;;;;;;;27.60;14.95;;;;;;;9.44;100.00;98277.56;2578111;28;20722;-83
2023/04/21 00:16:58;;;;;;;28.13;15.02;;;;;;;9.33;100.00;98277.81;2579567;28;20113;-82
2023/04/21 00:18:15;;;;;;;25.63;13.57;;;;;;;9.45;100.00;98274.06;2579100;28;20129;-82
2023/04/21 00:19:31;;;;;;;27.52;14.13;;;;;;;9.40;100.00;98271.56;2579381;28;20050;-82
2023/04/21 00:20:47;;;;;;;25.77;14.15;;;;;;;9.39;100.00;98266.34;2578761;28;20054;-82
2023/04/21 00:22:03;;;;;;;31.58;14.93;;;;;;;9.39;100.00;98274.19;2579591;28;20121;-82
2023/04/21 00:23:19;;;;;;;26.35;14.55;;;;;;;9.34;100.00;98271.69;2579124;28;20460;-82
2023/04/21 00:24:34;;;;;;;26.85;15.20;;;;;;;9.35;100.00;98277.78;2579426;28;20050;-82
2023/04/21 00:25:51;;;;;;;25.30;14.13;;;;;;;9.20;100.00;98277.28;2578851;28;20050;-82
2023/04/21 00:27:06;;;;;;;28.40;14.80;;;;;;;9.26;100.00;98276.28;2579127;28;20054;-82
2023/04/21 00:28:22;;;;;;;28.58;14.05;;;;;;;9.35;100.00;98283.88;2579110;28;20054;-82
2023/04/21 00:29:39;;;;;;;22.30;13.25;;;;;;;9.27;100.00;98278.00;2579540;28;20081;-82
2023/04/21 00:30:55;;;;;;;27.23;14.15;;;;;;;9.23;100.00;98277.22;2578415;28;20057;-82
2023/04/21 00:32:11;;;;;;;28.15;14.32;;;;;;;9.36;100.00;98280.38;2579245;28;20112;-82
2023/04/21 00:33:26;;;;;;;25.08;14.10;;;;;;;9.23;100.00;98273.75;2578644;28;20050;-82
2023/04/21 00:34:43;;;;;;;27.15;14.05;;;;;;;9.25;100.00;98275.41;2579043;28;20794;-82
2023/04/21 00:35:58;;;;;;;26.75;14.18;;;;;;;9.12;100.00;98285.31;2578694;28;20137;-82
2023/04/21 00:37:14;;;;;;;26.77;13.60;;;;;;;9.03;100.00;98270.75;2578589;28;20046;-82
2023/04/21 00:38:30;;;;;;;26.90;14.32;;;;;;;9.17;100.00;98282.59;2578192;28;20054;-82
2023/04/21 00:39:45;;;;;;;26.38;14.13;;;;;;;9.23;100.00;98278.97;2578757;28;20054;-82
2023/04/21 00:41:01;;;;;;;26.50;13.95;;;;;;;9.28;100.00;98274.47;2578948;28;20050;-82
2023/04/21 00:42:16;;;;;;;28.92;14.30;;;;;;;9.23;100.00;98265.91;2578802;28;20050;-83
2023/04/21 00:43:32;;;;;;;27.92;14.57;;;;;;;9.23;100.00;98266.75;2579155;28;20046;-82
2023/04/21 00:44:48;;;;;;;28.63;14.40;;;;;;;9.21;100.00;98275.53;2567821;28;20050;-82
2023/04/21 00:46:03;;;;;;;28.83;15.15;;;;;;;9.28;100.00;98261.41;2572765;28;20488;-82
2023/04/21 00:47:19;;;;;;;24.83;14.30;;;;;;;9.24;100.00;98267.63;2578526;28;20046;-83
2023/04/21 00:48:35;;;;;;;25.52;13.50;;;;;;;9.25;100.00;98258.91;2579263;28;20074;-82
2023/04/21 00:49:50;;;;;;;25.00;13.50;;;;;;;9.22;100.00;98262.44;2579085;28;20435;-82
2023/04/21 00:51:06;;;;;;;28.77;15.95;;;;;;;9.24;100.00;98259.78;2578885;28;20536;-82
2023/04/21 00:52:22;;;;;;;26.42;14.35;;;;;;;9.23;100.00;98260.69;2578946;28;20141;-82
2023/04/21 00:53:38;;;;;;;27.65;14.77;;;;;;;9.19;100.00;98254.69;2579530;28;20074;-82
2023/04/21 00:54:55;;;;;;;28.83;14.63;;;;;;;9.22;100.00;98257.22;2578769;28;20047;-82
2023/04/21 00:56:11;;;;;;;28.92;14.00;;;;;;;9.05;100.00;98257.63;2578857;28;20509;-82
2023/04/21 00:57:28;;;;;;;24.25;13.48;;;;;;;9.15;100.00;98255.63;2578746;28;20074;-82
2023/04/21 00:58:44;;;;;;;29.85;14.05;;;;;;;9.10;100.00;98254.91;2579057;28;20513;-82
2023/04/21 01:00:00;;;;;;;28.95;13.30;;;;;;;9.06;100.00;98254.13;2578467;28;20588;-82
2023/04/21 01:01:16;;;;;;;29.13;13.80;;;;;;;9.01;100.00;98254.25;2579324;28;20073;-82
2023/04/21 01:02:35;;;;;;;26.65;14.18;;;;;;;8.93;100.00;98257.91;2578265;28;20054;-82
2023/04/21 01:03:51;;;;;;;28.20;14.60;;;;;;;8.92;100.00;98259.69;2579032;28;20073;-82
2023/04/21 01:05:07;;;;;;;26.70;13.27;;;;;;;8.90;100.00;98267.53;2578389;28;20510;-82
2023/04/21 01:06:23;;;;;;;25.67;14.25;;;;;;;8.92;100.00;98261.44;2579013;28;20058;-82
2023/04/21 01:07:39;;;;;;;25.45;13.70;;;;;;;8.89;100.00;98255.38;2578691;28;20129;-83
2023/04/21 01:08:55;;;;;;;25.13;13.48;;;;;;;8.97;100.00;98268.25;2579131;28;20537;-82
2023/04/21 01:10:10;;;;;;;24.48;13.38;;;;;;;8.78;100.00;98259.16;2578243;28;20050;-82
2023/04/21 01:11:26;;;;;;;26.23;13.60;;;;;;;8.84;100.00;98259.88;2579096;28;20054;-82
2023/04/21 01:12:46;;;;;;;25.88;13.93;;;;;;;8.89;100.00;98259.78;2577184;28;20584;-82
2023/04/21 01:14:01;;;;;;;26.33;13.77;;;;;;;8.69;100.00;98268.06;2578010;28;20046;-82
2023/04/21 01:15:17;;;;;;;25.92;14.40;;;;;;;8.86;100.00;98265.03;2577725;28;20092;-82
2023/04/21 01:16:33;;;;;;;23.98;13.30;;;;;;;8.63;100.00;98266.47;2577535;28;20050;-82
2023/04/21 01:17:48;;;;;;;23.58;14.40;;;;;;;8.73;100.00;98262.75;2579021;28;20432;-82
2023/04/21 01:19:04;;;;;;;26.45;14.05;;;;;;;8.74;100.00;98258.38;2578373;28;20498;-82
2023/04/21 01:20:20;;;;;;;27.60;14.48;;;;;;;8.76;100.00;98267.88;2579110;28;20046;-82
2023/04/21 01:21:39;;;;;;;24.88;13.70;;;;;;;8.89;100.00;98265.84;2578291;28;20056;-82
2023/04/21 01:22:55;;;;;;;27.75;13.77;;;;;;;8.93;100.00;98266.63;2578917;28;20074;-82
2023/04/21 01:24:10;;;;;;;25.85;14.05;;;;;;;8.83;100.00;98267.72;2578433;28;20046;-82
2023/04/21 01:25:27;;;;;;;26.80;14.07;;;;;;;8.86;100.00;98271.13;2578693;28;20101;-82
2023/04/21 01:26:44;;;;;;;25.20;12.85;;;;;;;8.63;100.00;98266.47;2578374;28;20082;-82
2023/04/21 01:28:00;;;;;;;25.17;13.98;;;;;;;8.59;100.00;98265.66;2579042;28;20046;-82
2023/04/21 01:29:16;;;;;;;26.27;13.68;;;;;;;8.62;100.00;98268.19;2578161;28;20060;-82
2023/04/21 01:30:32;;;;;;;24.63;13.48;;;;;;;8.57;100.00;98269.19;2578316;28;20133;-82
2023/04/21 01:31:47;;;;;;;25.70;14.50;;;;;;;8.51;100.00;98262.34;2577489;28;20548;-82
2023/04/21 01:33:03;;;;;;;27.55;14.18;;;;;;;8.47;100.00;98269.38;2578867;28;20058;-82
2023/04/21 01:34:19;;;;;;;27.60;15.13;;;;;;;8.55;100.00;98265.75;2578299;28;20068;-82
2023/04/21 01:35:34;;;;;;;28.08;12.98;;;;;;;8.22;100.00;98263.81;2577740;28;20556;-82
2023/04/21 01:36:50;;;;;;;23.75;13.75;;;;;;;8.31;100.00;98260.16;2577864;28;20521;-82
2023/04/21 01:38:06;;;;;;;27.55;15.57;;;;;;;8.43;100.00;98259.88;2578875;28;20085;-82
2023/04/21 01:39:21;;;;;;;32.05;15.10;;;;;;;8.72;100.00;98261.00;2577987;28;20143;-82
2023/04/21 01:40:37;;;;;;;26.85;14.57;;;;;;;8.72;100.00;98266.22;2579005;28;20531;-82
2023/04/21 01:41:56;;;;;;;28.02;14.65;;;;;;;8.85;100.00;98266.81;2578006;28;20593;-82
2023/04/21 01:43:13;;;;;;;29.27;14.32;;;;;;;8.84;100.00;98254.66;2578560;28;20073;-83
2023/04/21 01:44:28;;;;;;;24.63;13.68;;;;;;;8.86;100.00;98263.31;2577456;28;20042;-82
2023/04/21 01:45:45;;;;;;;25.63;14.15;;;;;;;8.77;100.00;98263.50;2577999;28;20077;-82
2023/04/21 01:47:01;;;;;;;25.80;12.57;;;;;;;8.76;100.00;98264.41;2578010;28;20483;-82
2023/04/21 01:48:16;;;;;;;24.10;13.20;;;;;;;8.76;100.00;98261.78;2578732;28;20105;-82
2023/04/21 01:49:32;;;;;;;27.52;14.15;;;;;;;8.72;100.00;98257.56;2578359;28;20577;-82
2023/04/21 01:50:48;;;;;;;24.95;13.25;;;;;;;8.59;100.00;98260.44;2577977;28;20042;-82
2023/04/21 01:52:03;;;;;;;25.70;13.48;;;;;;;8.63;100.00;98263.84;2578893;28;20038;-82
2023/04/21 01:53:19;;;;;;;24.92;12.75;;;;;;;8.60;100.00;98264.75;2577952;28;20478;-82
2023/04/21 01:54:35;;;;;;;27.13;13.30;;;;;;;8.56;100.00;98262.25;2578817;28;20674;-82
2023/04/21 01:55:50;;;;;;;23.77;13.10;;;;;;;8.50;100.00;98265.84;2577845;28;20058;-82
2023/04/21 01:57:06;;;;;;;24.33;12.98;;;;;;;8.44;100.00;98266.81;2578685;28;20046;-82
2023/04/21 01:58:22;;;;;;;25.40;12.60;;;;;;;8.40;100.00;98269.56;2578009;28;20702;-82
2023/04/21 01:59:38;;;;;;;21.48;12.68;;;;;;;8.34;100.00;98270.53;2578822;28;20050;-82
2023/04/21 02:00:53;;;;;;;21.85;11.98;;;;;;;8.34;100.00;98262.72;2577951;28;20054;-82
2023/04/21 02:02:09;;;;;;;23.23;12.93;;;;;;;8.34;100.00;98266.16;2578888;28;20158;-82
2023/04/21 02:03:24;;;;;;;25.80;12.60;;;;;;;8.26;100.00;98268.09;2577885;28;20050;-82
2023/04/21 02:04:40;;;;;;;23.35;11.98;;;;;;;8.22;100.00;98258.59;2578446;28;20108;-82
2023/04/21 02:05:56;;;;;;;20.75;12.23;;;;;;;8.15;100.00;98264.84;2577088;28;20054;-84
2023/04/21 02:07:11;;;;;;;24.58;13.02;;;;;;;8.15;100.00;98272.69;2578111;28;20050;-82
2023/04/21 02:08:26;;;;;;;23.55;12.25;;;;;;;8.09;100.00;98264.97;2578229;28;20437;-82
2023/04/21 02:09:42;;;;;;;23.50;12.13;;;;;;;7.97;100.00;98263.47;2578629;28;20054;-82
2023/04/21 02:11:00;;;;;;;25.27;12.57;;;;;;;7.92;100.00;98260.97;2577894;28;20046;-82
2023/04/21 02:12:16;;;;;;;25.98;12.73;;;;;;;7.91;100.00;98259.25;2578331;28;20054;-82
2023/04/21 02:13:31;;;;;;;28.58;13.77;;;;;;;7.85;100.00;98259.38;2578073;28;20053;-82
2023/04/21 02:14:48;;;;;;;27.70;13.27;;;;;;;7.80;100.00;98258.59;2578401;28;20050;-82
2023/04/21 02:16:04;;;;;;;22.85;13.13;;;;;;;7.80;100.00;98254.25;2578027;28;20145;-82
2023/04/21 02:17:19;;;;;;;24.27;12.63;;;;;;;7.90;100.00;98267.97;2578604;28;20133;-82
2023/04/21 02:18:38;;;;;;;27.02;13.77;;;;;;;7.92;100.00;98266.19;2578106;28;20061;-82
2023/04/21 02:19:54;;;;;;;23.70;12.45;;;;;;;7.49;100.00;98262.66;2578410;28;20046;-82
2023/04/21 02:21:10;;;;;;;27.23;14.63;;;;;;;7.66;100.00;98262.34;2578029;28;20046;-82
2023/04/21 02:22:25;;;;;;;25.80;12.90;;;;;;;7.62;100.00;98261.56;2578245;28;20134;-82
2023/04/21 02:23:41;;;;;;;27.25;13.20;;;;;;;7.72;100.00;98256.16;2577349;28;20054;-82
2023/04/21 02:24:57;;;;;;;26.30;13.70;;;;;;;7.87;100.00;98260.22;2577379;28;20173;-82
2023/04/21 02:26:12;;;;;;;23.55;13.13;;;;;;;7.86;100.00;98261.09;2578294;28;20175;-82
2023/04/21 02:27:28;;;;;;;26.17;13.48;;;;;;;7.50;100.00;98261.78;2577918;28;20046;-82
2023/04/21 02:28:44;;;;;;;26.20;13.98;;;;;;;7.47;100.00;98259.22;2579978;28;20050;-82
2023/04/21 02:29:59;;;;;;;25.67;13.23;;;;;;;7.32;100.00;98263.81;2579954;28;20641;-82
2023/04/21 02:31:17;;;;;;;27.15;15.05;;;;;;;7.42;100.00;98261.06;2580561;28;20050;-82
2023/04/21 02:32:33;;;;;;;28.15;14.30;;;;;;;7.42;100.00;98261.06;2579788;28;20486;-82
2023/04/21 02:33:48;;;;;;;31.50;15.20;;;;;;;7.49;100.00;98260.06;2580373;28;20046;-82
2023/04/21 02:35:05;;;;;;;28.23;14.55;;;;;;;7.62;100.00;98255.47;2579653;28;20490;-83
2023/04/21 02:36:21;;;;;;;30.38;13.93;;;;;;;7.48;100.00;98258.34;2579892;28;20085;-82
2023/04/21 02:37:37;;;;;;;29.70;14.77;;;;;;;7.55;100.00;98259.09;2579938;28;20058;-82
2023/04/21 02:38:52;;;;;;;28.73;14.35;;;;;;;7.56;100.00;98266.03;2580426;28;20071;-82
2023/04/21 02:40:09;;;;;;;30.58;14.73;;;;;;;7.51;100.00;98257.41;2579880;28;20058;-83
2023/04/21 02:41:24;;;;;;;26.30;13.68;;;;;;;7.30;100.00;98264.75;2580510;28;20054;-82
2023/04/21 02:42:40;;;;;;;30.95;14.88;;;;;;;7.32;100.00;98261.19;2580036;28;20073;-82
2023/04/21 02:43:56;;;;;;;28.20;15.43;;;;;;;7.25;100.00;98261.34;2580231;28;20166;-83
2023/04/21 02:45:11;;;;;;;26.05;13.65;;;;;;;7.20;100.00;98251.88;2579891;28;20042;-82
2023/04/21 02:46:26;;;;;;;31.42;14.10;;;;;;;7.20;100.00;98262.28;2580354;28;20046;-82
2023/04/21 02:47:42;;;;;;;30.00;14.93;;;;;;;7.11;100.00;98265.03;2579881;28;20064;-82
2023/04/21 02:48:58;;;;;;;26.63;14.15;;;;;;;7.10;100.00;98265.94;2580379;28;20050;-82
2023/04/21 02:50:13;;;;;;;25.58;13.35;;;;;;;7.04;100.00;98261.69;2579735;28;20084;-82
2023/04/21 02:51:30;;;;;;;23.35;13.73;;;;;;;7.04;100.00;98266.03;2580410;28;20069;-82
2023/04/21 02:52:46;;;;;;;23.88;13.68;;;;;;;7.02;100.00;98266.06;2579184;28;20050;-82
2023/04/21 02:54:02;;;;;;;26.77;14.20;;;;;;;6.80;100.00;98265.53;2573478;28;20034;-82
2023/04/21 02:55:17;;;;;;;26.92;14.15;;;;;;;6.84;100.00;98267.19;2579594;28;20074;-82
2023/04/21 02:56:33;;;;;;;24.52;12.98;;;;;;;6.67;100.00;98266.59;2579822;28;20055;-82
2023/04/21 02:57:49;;;;;;;26.42;13.38;;;;;;;6.67;100.00;98261.41;2579897;28;20054;-82
2023/04/21 02:59:04;;;;;;;24.15;13.30;;;;;;;6.56;100.00;98258.97;2579634;28;20089;-81
2023/04/21 03:00:20;;;;;;;30.77;14.35;;;;;;;6.70;100.00;98261.34;2580156;28;20050;-82
2023/04/21 03:01:35;;;;;;;23.52;13.00;;;;;;;6.71;100.00;98260.50;2579626;28;20050;-83
2023/04/21 03:02:52;;;;;;;25.58;13.77;;;;;;;6.59;100.00;98266.72;2580356;28;20078;-82
2023/04/21 03:04:07;;;;;;;26.42;13.93;;;;;;;6.68;100.00;98266.59;2579496;28;20050;-82
2023/04/21 03:05:23;;;;;;;25.33;14.18;;;;;;;6.75;100.00;98267.38;2580218;28;20054;-81
2023/04/21 03:06:39;;;;;;;25.30;13.00;;;;;;;6.67;100.00;98259.69;2579560;28;20058;-82
2023/04/21 03:07:54;;;;;;;27.48;13.82;;;;;;;6.73;100.00;98261.34;2580178;28;20054;-81
2023/04/21 03:09:10;;;;;;;24.00;12.20;;;;;;;6.74;100.00;98257.84;2579856;28;20116;-82
2023/04/21 03:10:26;;;;;;;25.90;13.60;;;;;;;6.66;100.00;98264.88;2580088;28;20062;-82
2023/04/21 03:11:41;;;;;;;25.40;13.75;;;;;;;6.65;100.00;98266.66;2579627;28;20066;-82
2023/04/21 03:12:56;;;;;;;23.90;13.32;;;;;;;6.74;100.00;98261.28;2580025;28;20082;-82
2023/04/21 03:14:12;;;;;;;26.05;13.38;;;;;;;6.72;100.00;98262.22;2579536;28;20494;-82
2023/04/21 03:15:28;;;;;;;24.08;12.93;;;;;;;6.62;100.00;98264.94;2580164;28;20116;-82
2023/04/21 03:16:46;;;;;;;23.90;14.18;;;;;;;6.57;100.00;98256.38;2579310;28;20426;-82
2023/04/21 03:18:03;;;;;;;25.45;13.25;;;;;;;6.40;100.00;98256.59;2579969;28;20484;-81
2023/04/21 03:19:18;;;;;;;26.40;13.77;;;;;;;6.46;100.00;98260.84;2573783;28;20141;-82
2023/04/21 03:20:34;;;;;;;29.27;14.38;;;;;;;6.46;100.00;98260.84;2576509;28;20593;-81
2023/04/21 03:21:49;;;;;;;27.52;14.25;;;;;;;6.30;100.00;98260.19;2578366;28;20529;-82
2023/04/21 03:23:05;;;;;;;25.33;13.35;;;;;;;6.39;100.00;98261.81;2579624;28;20050;-81
2023/04/21 03:24:20;;;;;;;30.63;13.93;;;;;;;6.22;100.00;98271.56;2578590;28;20129;-82
2023/04/21 03:25:37;;;;;;;25.98;13.68;;;;;;;6.44;100.00;98268.66;2579641;28;20050;-82
2023/04/21 03:26:53;;;;;;;24.80;12.98;;;;;;;6.33;100.00;98266.22;2579529;28;20073;-82
2023/04/21 03:28:08;;;;;;;26.30;13.50;;;;;;;6.32;100.00;98272.31;2579812;28;20506;-82
2023/04/21 03:29:24;;;;;;;26.77;13.80;;;;;;;6.27;100.00;98266.28;2579404;28;20073;-82
2023/04/21 03:30:40;;;;;;;28.25;13.13;;;;;;;6.16;100.00;98266.44;2578914;28;20108;-82
2023/04/21 03:31:55;;;;;;;28.38;14.55;;;;;;;6.17;100.00;98270.75;2579806;28;20501;-82
2023/04/21 03:33:11;;;;;;;24.23;13.05;;;;;;;6.16;100.00;98265.59;2579393;28;20887;-82
2023/04/21 03:34:26;;;;;;;24.80;13.63;;;;;;;6.10;100.00;98266.53;2580098;28;20101;-82
2023/04/21 03:35:42;;;;;;;27.08;13.60;;;;;;;6.04;100.00;98266.59;2578744;28;20058;-82
2023/04/21 03:36:58;;;;;;;26.58;13.90;;;;;;;6.16;100.00;98260.41;2579080;28;20514;-81
2023/04/21 03:38:13;;;;;;;26.42;14.15;;;;;;;5.80;100.00;98269.44;2578854;28;20050;-82
2023/04/21 03:39:29;;;;;;;27.42;14.40;;;;;;;5.76;100.00;98264.28;2579798;28;20050;-82
2023/04/21 03:40:45;;;;;;;30.65;14.45;;;;;;;5.77;100.00;98264.28;2579475;28;20062;-81
2023/04/21 03:42:00;;;;;;;28.35;14.52;;;;;;;5.85;100.00;98265.91;2579607;28;20062;-81
2023/04/21 03:43:16;;;;;;;27.10;14.05;;;;;;;6.02;100.00;98261.44;2579473;28;20058;-82
2023/04/21 03:44:32;;;;;;;24.85;12.68;;;;;;;5.80;100.00;98266.00;2579712;28;20054;-82
2023/04/21 03:45:47;;;;;;;28.15;13.77;;;;;;;5.86;100.00;98262.44;2579033;28;20057;-84
2023/04/21 03:47:03;;;;;;;32.67;15.18;;;;;;;5.79;100.00;98262.53;2579950;28;20061;-81
2023/04/21 03:48:18;;;;;;;30.85;15.57;;;;;;;5.96;100.00;98263.22;2579279;28;20135;-82
2023/04/21 03:49:34;;;;;;;22.75;13.10;;;;;;;6.02;100.00;98269.22;2579725;28;20085;-82
2023/04/21 03:50:50;;;;;;;25.45;13.63;;;;;;;5.96;100.00;98261.47;2579142;28;20080;-82
2023/04/21 03:52:05;;;;;;;22.25;13.07;;;;;;;5.93;100.00;98266.69;2578777;28;20058;-81
2023/04/21 03:53:21;;;;;;;23.88;12.43;;;;;;;5.82;100.00;98265.97;2578471;28;20097;-86
2023/04/21 03:54:37;;;;;;;25.23;13.82;;;;;;;5.63;100.00;98268.78;2579841;28;20592;-82
2023/04/21 03:55:52;;;;;;;24.40;12.57;;;;;;;5.37;100.00;98268.16;2579090;28;20042;-81
2023/04/21 03:57:08;;;;;;;29.27;14.43;;;;;;;5.49;100.00;98267.19;2579047;28;20116;-81
2023/04/21 03:58:24;;;;;;;26.20;14.00;;;;;;;5.57;100.00;98267.09;2578725;28;20050;-82
2023/04/21 03:59:40;;;;;;;24.58;13.35;;;;;;;5.69;100.00;98270.44;2579672;28;20050;-82
2023/04/21 04:00:56;;;;;;;23.90;13.07;;;;;;;5.70;100.00;98272.16;2578823;28;20120;-81
2023/04/21 04:02:11;;;;;;;26.13;14.25;;;;;;;5.56;100.00;98278.38;2578909;28;20073;-82
2023/04/21 04:03:27;;;;;;;27.45;14.32;;;;;;;5.68;100.00;98266.13;2579606;28;20058;-82
2023/04/21 04:04:42;;;;;;;26.65;13.57;;;;;;;5.60;100.00;98269.66;2579024;28;20483;-82
2023/04/21 04:05:58;;;;;;;25.00;12.77;;;;;;;5.39;100.00;98273.34;2579525;28;20057;-82
2023/04/21 04:07:13;;;;;;;22.65;12.85;;;;;;;5.22;100.00;98274.38;2578334;28;20383;-82
2023/04/21 04:08:30;;;;;;;28.65;13.52;;;;;;;5.32;100.00;98272.53;2579789;28;20084;-82
2023/04/21 04:09:45;;;;;;;24.08;12.85;;;;;;;5.43;100.00;98272.41;2578851;28;20069;-85
2023/04/21 04:11:01;;;;;;;24.55;13.80;;;;;;;5.45;100.00;98277.63;2579566;28;20046;-82
2023/04/21 04:12:16;;;;;;;25.55;12.43;;;;;;;5.33;100.00;98274.25;2578764;28;20098;-82
2023/04/21 04:13:32;;;;;;;28.48;13.45;;;;;;;5.32;100.00;98274.28;2578975;28;20077;-82
2023/04/21 04:14:47;;;;;;;28.95;14.02;;;;;;;5.41;100.00;98273.34;2578982;28;20051;-82
2023/04/21 04:16:03;;;;;;;28.48;14.20;;;;;;;5.32;100.00;98280.31;2579531;28;20081;-82
2023/04/21 04:17:19;;;;;;;33.00;15.57;;;;;;;5.32;100.00;98272.53;2578651;28;20050;-82
2023/04/21 04:18:34;;;;;;;26.48;13.85;;;;;;;5.39;100.00;98270.75;2579473;28;20050;-82
2023/04/21 04:19:50;;;;;;;26.85;14.32;;;;;;;5.51;100.00;98269.75;2578887;28;20051;-82
2023/04/21 04:21:08;;;;;;;29.05;14.75;;;;;;;5.46;100.00;98268.94;2578553;28;20829;-82
2023/04/21 04:22:24;;;;;;;28.13;14.40;;;;;;;5.51;100.00;98269.75;2575723;28;20070;-82
2023/04/21 04:23:39;;;;;;;27.52;13.88;;;;;;;5.54;100.00;98274.06;2578485;28;20046;-82
2023/04/21 04:24:56;;;;;;;26.35;13.80;;;;;;;5.39;100.00;98278.53;2578355;28;20233;-83
2023/04/21 04:26:11;;;;;;;32.05;14.85;;;;;;;5.49;100.00;98277.56;2579333;28;20070;-82
2023/04/21 04:27:27;;;;;;;27.80;13.77;;;;;;;5.55;100.00;98275.78;2578207;28;20624;-82
2023/04/21 04:28:42;;;;;;;26.48;13.63;;;;;;;5.52;100.00;98271.50;2579082;28;20058;-82
2023/04/21 04:29:58;;;;;;;28.33;13.88;;;;;;;5.58;100.00;98270.53;2578526;28;20061;-82
2023/04/21 04:31:15;;;;;;;26.33;13.77;;;;;;;5.54;100.00;98268.88;2578630;28;20050;-82
2023/04/21 04:32:32;;;;;;;23.67;13.35;;;;;;;5.29;100.00;98274.28;2578662;28;20070;-82
2023/04/21 04:33:47;;;;;;;27.83;13.85;;;;;;;5.54;100.00;98279.25;2578337;28;20073;-82
2023/04/21 04:35:08;;;;;;;26.50;13.75;;;;;;;5.47;100.00;98275.84;2578424;28;20054;-82
2023/04/21 04:36:23;;;;;;;24.27;12.70;;;;;;;5.26;100.00;98274.31;2578438;28;20061;-82
2023/04/21 04:37:40;;;;;;;30.95;14.65;;;;;;;5.37;100.00;98280.28;2578845;28;20043;-82
2023/04/21 04:38:57;;;;;;;26.30;14.05;;;;;;;5.26;100.00;98280.41;2578466;28;20077;-82
2023/04/21 04:40:13;;;;;;;32.40;14.80;;;;;;;5.38;100.00;98279.41;2579104;28;20054;-82
2023/04/21 04:41:29;;;;;;;24.83;13.35;;;;;;;5.41;100.00;98274.19;2577857;28;20061;-83
2023/04/21 04:42:45;;;;;;;22.52;13.02;;;;;;;5.49;100.00;98287.09;2578908;28;20078;-82
2023/04/21 04:44:03;;;;;;;30.58;14.32;;;;;;;5.39;100.00;98270.75;2578200;28;20402;-82
2023/04/21 04:45:20;;;;;;;26.15;13.52;;;;;;;5.49;100.00;98282.75;2578872;28;20578;-82
2023/04/21 04:46:37;;;;;;;28.08;13.60;;;;;;;5.33;100.00;98283.78;2578205;28;20137;-82
2023/04/21 04:47:53;;;;;;;26.70;13.88;;;;;;;5.47;100.00;98281.91;2578611;28;20501;-82
2023/04/21 04:49:08;;;;;;;25.85;13.98;;;;;;;5.53;100.00;98283.59;2578390;28;20050;-82
2023/04/21 04:50:24;;;;;;;29.33;14.05;;;;;;;5.53;100.00;98280.13;2578234;28;20054;-82
2023/04/21 04:51:40;;;;;;;28.55;14.48;;;;;;;5.74;100.00;98279.03;2577213;28;20065;-83
2023/04/21 04:52:56;;;;;;;27.58;13.75;;;;;;;5.65;100.00;98280.00;2579053;28;20050;-82
2023/04/21 04:54:12;;;;;;;23.42;12.82;;;;;;;5.72;100.00;98278.19;2578279;28;20046;-83
2023/04/21 04:55:27;;;;;;;29.67;14.52;;;;;;;5.61;100.00;98275.72;2579318;28;20065;-82
2023/04/21 04:56:43;;;;;;;26.63;13.90;;;;;;;5.69;100.00;98273.88;2578396;28;20105;-82
2023/04/21 04:58:00;;;;;;;29.98;14.60;;;;;;;5.63;100.00;98280.00;2578981;28;20054;-82
2023/04/21 04:59:18;;;;;;;26.67;14.13;;;;;;;5.84;100.00;98277.19;2578444;28;20057;-84
2023/04/21 05:00:35;;;;;;;27.23;14.57;;;;;;;5.78;100.00;98279.00;2579055;28;20054;-82
2023/04/21 05:01:53;;;;;;;25.92;14.27;;;;;;;5.96;100.00;98277.06;2578067;28;20145;-82
2023/04/21 05:03:08;;;;;;;29.42;14.82;;;;;;;6.05;100.00;98278.69;2579135;28;20552;-82
2023/04/21 05:04:24;;;;;;;28.17;14.38;;;;;;;6.02;100.00;98282.22;2578314;28;20042;-82
2023/04/21 05:05:40;;;;;;;29.20;15.35;;;;;;;5.97;100.00;98283.13;2578908;28;20064;-82
2023/04/21 05:06:55;;;;;;;26.55;13.82;;;;;;;6.16;100.00;98281.19;2578289;28;20068;-82
2023/04/21 05:08:11;;;;;;;27.67;13.27;;;;;;;6.15;100.00;98282.91;2578933;28;20130;-82
2023/04/21 05:09:26;;;;;;;29.92;14.23;;;;;;;6.11;100.00;98276.03;2578134;28;20051;-82
2023/04/21 05:10:42;;;;;;;23.83;13.35;;;;;;;6.01;100.00;98283.09;2578001;28;20046;-82
2023/04/21 05:11:59;;;;;;;27.60;14.48;;;;;;;5.92;100.00;98283.16;2577161;28;20081;-82
2023/04/21 05:13:16;;;;;;;27.98;14.02;;;;;;;5.97;100.00;98286.56;2578404;28;20157;-82
2023/04/21 05:14:31;;;;;;;26.73;13.65;;;;;;;6.15;100.00;98285.50;2578309;28;20054;-83
2023/04/21 05:15:47;;;;;;;30.17;14.10;;;;;;;6.05;100.00;98286.50;2577312;28;20082;-83
2023/04/21 05:17:03;;;;;;;28.75;14.05;;;;;;;5.98;100.00;98284.84;2578330;28;20081;-82
2023/04/21 05:18:18;;;;;;;24.73;13.45;;;;;;;6.19;100.00;98291.53;2578077;28;20046;-82
2023/04/21 05:19:37;;;;;;;27.33;14.32;;;;;;;6.41;100.00;98286.03;2578686;28;20049;-82
2023/04/21 05:20:52;;;;;;;26.52;12.75;;;;;;;6.15;100.00;98282.06;2577014;28;20085;-82
2023/04/21 05:22:08;;;;;;;25.38;13.20;;;;;;;6.41;100.00;98283.44;2578314;28;20050;-82
2023/04/21 05:23:23;;;;;;;34.35;15.48;;;;;;;6.47;100.00;98293.78;2577248;28;20518;-82
2023/04/21 05:24:42;;;;;;;29.20;13.82;;;;;;;6.56;100.00;98287.59;2578295;28;20593;-82
2023/04/21 05:25:58;;;;;;;27.23;14.18;;;;;;;6.45;100.00;98287.75;2578404;28;20430;-82
2023/04/21 05:27:13;;;;;;;27.52;14.68;;;;;;;6.29;100.00;98289.69;2578699;28;20034;-82
2023/04/21 05:28:30;;;;;;;26.35;13.80;;;;;;;6.54;100.00;98295.41;2578182;28;20465;-82
2023/04/21 05:29:46;;;;;;;27.00;14.27;;;;;;;6.74;100.00;98295.13;2579114;28;20093;-82
2023/04/21 05:31:01;;;;;;;27.67;14.63;;;;;;;6.64;100.00;98291.78;2578035;28;20042;-82
2023/04/21 05:32:17;;;;;;;28.95;15.35;;;;;;;6.84;100.00;98294.97;2578977;28;20445;-82
2023/04/21 05:33:33;;;;;;;32.50;14.80;;;;;;;6.61;100.00;98302.25;2578044;28;20542;-83
2023/04/21 05:34:49;;;;;;;29.27;14.20;;;;;;;6.76;100.00;98301.16;2578463;28;20101;-82
2023/04/21 05:36:08;;;;;;;26.75;14.90;;;;;;;6.88;100.00;98305.31;2578013;28;20563;-82
2023/04/21 05:37:24;;;;;;;26.98;14.57;;;;;;;6.84;100.00;98301.03;2578687;28;20506;-82
2023/04/21 05:38:39;;;;;;;28.45;15.07;;;;;;;7.07;100.00;98299.81;2577694;28;20089;-82
2023/04/21 05:39:55;;;;;;;29.45;14.07;;;;;;;7.26;100.00;98304.72;2577512;28;20097;-83
2023/04/21 05:41:11;;;;;;;27.30;14.50;;;;;;;7.16;100.00;98299.69;2577635;28;20991;-83
2023/04/21 05:42:26;;;;;;;26.85;14.48;;;;;;;7.13;100.00;98302.34;2578447;28;20081;-82
2023/04/21 05:43:42;;;;;;;26.50;13.77;;;;;;;7.17;100.00;98304.00;2577822;28;20042;-83
2023/04/21 05:44:58;;;;;;;28.27;14.02;;;;;;;7.32;100.00;98302.03;2578138;28;20069;-82
2023/04/21 05:46:13;;;;;;;29.42;13.98;;;;;;;7.18;100.00;98302.25;2578013;28;20061;-83
2023/04/21 05:47:29;;;;;;;27.98;14.68;;;;;;;7.39;100.00;98300.19;2578715;28;20061;-88
2023/04/21 05:48:44;;;;;;;32.17;14.70;;;;;;;7.42;100.00;98290.56;2578112;28;20046;-89